sensor_id;sensor_type;location;lat;lon;timestamp;pressure;altitude;pressure_sealevel;temperature;humidity
30554;BME280;17335;50.720;7.452;2023-04-28T00:01:50;99003.22;;;10.72;100.00
30554;BME280;17335;50.720;7.452;2023-04-28T00:04:17;98996.94;;;10.63;100.00
30554;BME280;17335;50.720;7.452;2023-04-28T00:06:44;98985.66;;;10.60;100.00
30554;BME280;17335;50.720;7.452;2023-04-28T00:09:11;98980.50;;;10.48;100.00
30554;BME280;17335;50.720;7.452;2023-04-28T00:11:38;98974.22;;;10.40;100.00
30554;BME280;17335;50.720;7.452;2023-04-28T00:14:05;98970.72;;;10.39;100.00
30554;BME280;17335;50.720;7.452;2023-04-28T00:16:31;98966.94;;;10.50;100.00
30554;BME280;17335;50.720;7.452;2023-04-28T00:18:58;98971.09;;;10.44;100.00
30554;BME280;17335;50.720;7.452;2023-04-28T00:21:24;98965.66;;;10.36;100.00
30554;BME280;17335;50.720;7.452;2023-04-28T00:23:51;98963.66;;;10.38;100.00
30554;BME280;17335;50.720;7.452;2023-04-28T00:26:17;98959.00;;;10.40;100.00
30554;BME280;17335;50.720;7.452;2023-04-28T00:28:44;98952.53;;;10.33;100.00
30554;BME280;17335;50.720;7.452;2023-04-28T00:31:12;98947.53;;;10.38;100.00
30554;BME280;17335;50.720;7.452;2023-04-28T00:33:39;98945.56;;;10.40;100.00
30554;BME280;17335;50.720;7.452;2023-04-28T00:36:06;98935.69;;;10.41;100.00
30554;BME280;17335;50.720;7.452;2023-04-28T00:38:33;98941.34;;;10.38;100.00
30554;BME280;17335;50.720;7.452;2023-04-28T00:41:00;98947.72;;;10.37;100.00
30554;BME280;17335;50.720;7.452;2023-04-28T00:43:26;98939.41;;;10.30;100.00
30554;BME280;17335;50.720;7.452;2023-04-28T00:45:53;98939.72;;;10.27;100.00
30554;BME280;17335;50.720;7.452;2023-04-28T00:48:20;98939.63;;;10.19;100.00
30554;BME280;17335;50.720;7.452;2023-04-28T00:50:47;98938.50;;;10.21;100.00
30554;BME280;17335;50.720;7.452;2023-04-28T00:53:14;98938.09;;;10.16;100.00
30554;BME280;17335;50.720;7.452;2023-04-28T00:55:40;98942.59;;;10.16;100.00
30554;BME280;17335;50.720;7.452;2023-04-28T00:58:08;98944.59;;;10.13;100.00
30554;BME280;17335;50.720;7.452;2023-04-28T01:00:34;98943.91;;;10.11;100.00
30554;BME280;17335;50.720;7.452;2023-04-28T01:03:01;98941.69;;;10.07;100.00
30554;BME280;17335;50.720;7.452;2023-04-28T01:05:30;98935.19;;;10.09;100.00
30554;BME280;17335;50.720;7.452;2023-04-28T01:07:57;98928.50;;;10.13;100.00
30554;BME280;17335;50.720;7.452;2023-04-28T01:10:24;98923.38;;;10.20;100.00
30554;BME280;17335;50.720;7.452;2023-04-28T01:12:50;98918.78;;;10.30;100.00
30554;BME280;17335;50.720;7.452;2023-04-28T01:15:18;98914.81;;;10.35;100.00
30554;BME280;17335;50.720;7.452;2023-04-28T01:17:46;98919.03;;;10.37;100.00
30554;BME280;17335;50.720;7.452;2023-04-28T01:20:13;98907.00;;;10.41;100.00
30554;BME280;17335;50.720;7.452;2023-04-28T01:22:40;98897.88;;;10.34;100.00
30554;BME280;17335;50.720;7.452;2023-04-28T01:25:07;98890.59;;;10.44;100.00
30554;BME280;17335;50.720;7.452;2023-04-28T01:27:34;98896.91;;;10.35;100.00
30554;BME280;17335;50.720;7.452;2023-04-28T01:30:01;98891.13;;;10.30;100.00
30554;BME280;17335;50.720;7.452;2023-04-28T01:32:27;98880.53;;;10.28;100.00
30554;BME280;17335;50.720;7.452;2023-04-28T01:34:54;98873.88;;;10.32;100.00
30554;BME280;17335;50.720;7.452;2023-04-28T01:37:21;98875.97;;;10.39;100.00
30554;BME280;17335;50.720;7.452;2023-04-28T01:39:48;98881.38;;;10.29;100.00
30554;BME280;17335;50.720;7.452;2023-04-28T01:42:14;98882.69;;;10.25;100.00
30554;BME280;17335;50.720;7.452;2023-04-28T01:44:41;98879.00;;;10.26;100.00
30554;BME280;17335;50.720;7.452;2023-04-28T01:47:07;98877.94;;;10.19;100.00
30554;BME280;17335;50.720;7.452;2023-04-28T01:49:34;98888.22;;;10.23;100.00
30554;BME280;17335;50.720;7.452;2023-04-28T01:52:01;98892.31;;;10.18;100.00
30554;BME280;17335;50.720;7.452;2023-04-28T01:54:29;98887.81;;;10.18;100.00
30554;BME280;17335;50.720;7.452;2023-04-28T01:56:56;98885.59;;;10.13;100.00
30554;BME280;17335;50.720;7.452;2023-04-28T01:59:23;98886.97;;;10.18;100.00
30554;BME280;17335;50.720;7.452;2023-04-28T02:01:49;98880.09;;;10.15;100.00
30554;BME280;17335;50.720;7.452;2023-04-28T02:04:16;98878.69;;;10.29;100.00
30554;BME280;17335;50.720;7.452;2023-04-28T02:06:44;98884.28;;;10.18;100.00
30554;BME280;17335;50.720;7.452;2023-04-28T02:09:10;98877.16;;;10.08;100.00
30554;BME280;17335;50.720;7.452;2023-04-28T02:11:36;98886.28;;;10.16;100.00
30554;BME280;17335;50.720;7.452;2023-04-28T02:14:03;98888.72;;;10.09;100.00
30554;BME280;17335;50.720;7.452;2023-04-28T02:16:29;98885.66;;;10.04;100.00
30554;BME280;17335;50.720;7.452;2023-04-28T02:18:57;98886.44;;;9.96;100.00
30554;BME280;17335;50.720;7.452;2023-04-28T02:21:23;98882.59;;;9.99;100.00
30554;BME280;17335;50.720;7.452;2023-04-28T02:23:51;98882.78;;;9.97;100.00
30554;BME280;17335;50.720;7.452;2023-04-28T02:26:19;98876.69;;;9.95;100.00
30554;BME280;17335;50.720;7.452;2023-04-28T02:28:45;98881.06;;;9.96;100.00
30554;BME280;17335;50.720;7.452;2023-04-28T02:31:12;98880.22;;;10.13;100.00
30554;BME280;17335;50.720;7.452;2023-04-28T02:33:39;98881.53;;;10.09;100.00
30554;BME280;17335;50.720;7.452;2023-04-28T02:36:08;98876.34;;;10.08;100.00
30554;BME280;17335;50.720;7.452;2023-04-28T02:38:34;98883.47;;;9.99;100.00
30554;BME280;17335;50.720;7.452;2023-04-28T02:41:04;98873.88;;;9.97;100.00
30554;BME280;17335;50.720;7.452;2023-04-28T02:43:31;98878.00;;;9.91;100.00
30554;BME280;17335;50.720;7.452;2023-04-28T02:45:58;98875.03;;;9.94;100.00
30554;BME280;17335;50.720;7.452;2023-04-28T02:48:25;98867.97;;;9.93;100.00
30554;BME280;17335;50.720;7.452;2023-04-28T02:50:52;98866.31;;;9.92;100.00
30554;BME280;17335;50.720;7.452;2023-04-28T02:53:21;98874.16;;;9.93;100.00
30554;BME280;17335;50.720;7.452;2023-04-28T02:55:48;98864.06;;;9.87;100.00
30554;BME280;17335;50.720;7.452;2023-04-28T02:58:15;98859.53;;;9.88;100.00
30554;BME280;17335;50.720;7.452;2023-04-28T03:00:43;98865.19;;;9.85;100.00
30554;BME280;17335;50.720;7.452;2023-04-28T03:03:10;98855.78;;;9.81;100.00
30554;BME280;17335;50.720;7.452;2023-04-28T03:05:36;98858.16;;;9.84;100.00
30554;BME280;17335;50.720;7.452;2023-04-28T03:08:03;98856.84;;;9.88;100.00
30554;BME280;17335;50.720;7.452;2023-04-28T03:10:31;98859.53;;;9.88;100.00
30554;BME280;17335;50.720;7.452;2023-04-28T03:12:58;98855.19;;;9.87;100.00
30554;BME280;17335;50.720;7.452;2023-04-28T03:15:25;98858.41;;;9.90;100.00
30554;BME280;17335;50.720;7.452;2023-04-28T03:17:51;98847.84;;;9.89;100.00
30554;BME280;17335;50.720;7.452;2023-04-28T03:20:18;98844.66;;;9.93;100.00
30554;BME280;17335;50.720;7.452;2023-04-28T03:22:45;98843.09;;;10.01;100.00
30554;BME280;17335;50.720;7.452;2023-04-28T03:25:11;98854.66;;;10.01;100.00
30554;BME280;17335;50.720;7.452;2023-04-28T03:27:38;98845.91;;;9.99;100.00
30554;BME280;17335;50.720;7.452;2023-04-28T03:30:05;98839.00;;;9.97;100.00
30554;BME280;17335;50.720;7.452;2023-04-28T03:32:32;98844.66;;;9.93;100.00
30554;BME280;17335;50.720;7.452;2023-04-28T03:34:59;98840.03;;;9.95;100.00
30554;BME280;17335;50.720;7.452;2023-04-28T03:37:25;98838.78;;;9.90;100.00
30554;BME280;17335;50.720;7.452;2023-04-28T03:39:52;98837.69;;;9.83;100.00
30554;BME280;17335;50.720;7.452;2023-04-28T03:42:18;98833.19;;;9.83;100.00
30554;BME280;17335;50.720;7.452;2023-04-28T03:44:45;98822.25;;;9.76;100.00
30554;BME280;17335;50.720;7.452;2023-04-28T03:47:12;98819.38;;;9.78;100.00
30554;BME280;17335;50.720;7.452;2023-04-28T03:49:38;98826.59;;;9.77;100.00
30554;BME280;17335;50.720;7.452;2023-04-28T03:52:05;98827.66;;;9.85;100.00
30554;BME280;17335;50.720;7.452;2023-04-28T03:54:32;98822.69;;;9.90;100.00
30554;BME280;17335;50.720;7.452;2023-04-28T03:56:59;98810.91;;;9.83;100.00
30554;BME280;17335;50.720;7.452;2023-04-28T03:59:27;98820.56;;;9.75;100.00
30554;BME280;17335;50.720;7.452;2023-04-28T04:01:53;98814.22;;;9.76;100.00
30554;BME280;17335;50.720;7.452;2023-04-28T04:04:20;98820.00;;;9.90;100.00
30554;BME280;17335;50.720;7.452;2023-04-28T04:06:47;98814.56;;;10.00;100.00
30554;BME280;17335;50.720;7.452;2023-04-28T04:09:14;98814.50;;;9.73;100.00
30554;BME280;17335;50.720;7.452;2023-04-28T04:11:40;98818.47;;;9.69;100.00
30554;BME280;17335;50.720;7.452;2023-04-28T04:14:07;98822.16;;;9.68;100.00
30554;BME280;17335;50.720;7.452;2023-04-28T04:16:34;98838.59;;;9.55;100.00
30554;BME280;17335;50.720;7.452;2023-04-28T04:19:01;98838.59;;;9.55;100.00
30554;BME280;17335;50.720;7.452;2023-04-28T04:21:28;98824.31;;;9.65;100.00
30554;BME280;17335;50.720;7.452;2023-04-28T04:23:54;98820.84;;;9.54;100.00
30554;BME280;17335;50.720;7.452;2023-04-28T04:26:21;98813.53;;;9.47;100.00
30554;BME280;17335;50.720;7.452;2023-04-28T04:28:47;98804.28;;;9.41;100.00
30554;BME280;17335;50.720;7.452;2023-04-28T04:31:14;98802.81;;;9.47;100.00
30554;BME280;17335;50.720;7.452;2023-04-28T04:33:41;98803.59;;;9.39;100.00
30554;BME280;17335;50.720;7.452;2023-04-28T04:36:08;98803.06;;;9.35;100.00
30554;BME280;17335;50.720;7.452;2023-04-28T04:38:36;98801.22;;;9.36;100.00
30554;BME280;17335;50.720;7.452;2023-04-28T04:41:03;98800.25;;;9.55;100.00
30554;BME280;17335;50.720;7.452;2023-04-28T04:43:30;98804.22;;;9.51;100.00
30554;BME280;17335;50.720;7.452;2023-04-28T04:45:57;98794.59;;;9.58;100.00
30554;BME280;17335;50.720;7.452;2023-04-28T04:48:23;98785.38;;;9.61;100.00
30554;BME280;17335;50.720;7.452;2023-04-28T04:50:50;98785.78;;;9.66;100.00
30554;BME280;17335;50.720;7.452;2023-04-28T04:53:17;98774.13;;;9.57;100.00
30554;BME280;17335;50.720;7.452;2023-04-28T04:55:43;98779.28;;;9.68;100.00
30554;BME280;17335;50.720;7.452;2023-04-28T04:58:10;98785.16;;;9.72;100.00
30554;BME280;17335;50.720;7.452;2023-04-28T05:00:36;98781.28;;;9.66;100.00
30554;BME280;17335;50.720;7.452;2023-04-28T05:03:04;98786.63;;;9.66;100.00
30554;BME280;17335;50.720;7.452;2023-04-28T05:05:31;98793.66;;;9.67;100.00
30554;BME280;17335;50.720;7.452;2023-04-28T05:08:00;98791.13;;;9.66;100.00
30554;BME280;17335;50.720;7.452;2023-04-28T05:10:27;98787.09;;;9.62;100.00
30554;BME280;17335;50.720;7.452;2023-04-28T05:12:54;98771.16;;;9.60;100.00
30554;BME280;17335;50.720;7.452;2023-04-28T05:15:21;98771.69;;;9.64;100.00
30554;BME280;17335;50.720;7.452;2023-04-28T05:17:47;98792.97;;;9.65;100.00
30554;BME280;17335;50.720;7.452;2023-04-28T05:20:14;98803.94;;;9.72;100.00
30554;BME280;17335;50.720;7.452;2023-04-28T05:22:41;98814.81;;;9.70;100.00
30554;BME280;17335;50.720;7.452;2023-04-28T05:25:07;98821.84;;;9.71;100.00
30554;BME280;17335;50.720;7.452;2023-04-28T05:27:34;98832.00;;;9.68;100.00
30554;BME280;17335;50.720;7.452;2023-04-28T05:30:05;98833.19;;;9.65;100.00
30554;BME280;17335;50.720;7.452;2023-04-28T05:32:34;98834.16;;;9.64;100.00
30554;BME280;17335;50.720;7.452;2023-04-28T05:35:01;98845.88;;;9.63;100.00
30554;BME280;17335;50.720;7.452;2023-04-28T05:37:28;98841.91;;;9.67;100.00
30554;BME280;17335;50.720;7.452;2023-04-28T05:39:54;98835.25;;;9.71;100.00
30554;BME280;17335;50.720;7.452;2023-04-28T05:42:21;98830.59;;;9.73;100.00
30554;BME280;17335;50.720;7.452;2023-04-28T05:44:47;98819.56;;;9.76;100.00
30554;BME280;17335;50.720;7.452;2023-04-28T05:47:14;98832.59;;;9.71;100.00
30554;BME280;17335;50.720;7.452;2023-04-28T05:49:40;98828.44;;;9.77;100.00
30554;BME280;17335;50.720;7.452;2023-04-28T05:52:07;98830.59;;;9.73;100.00
30554;BME280;17335;50.720;7.452;2023-04-28T05:54:34;98824.69;;;9.70;100.00
30554;BME280;17335;50.720;7.452;2023-04-28T05:57:00;98823.22;;;9.75;100.00
30554;BME280;17335;50.720;7.452;2023-04-28T05:59:28;98828.22;;;9.70;100.00
30554;BME280;17335;50.720;7.452;2023-04-28T06:01:56;98821.22;;;9.77;100.00
30554;BME280;17335;50.720;7.452;2023-04-28T06:04:22;98827.28;;;9.80;100.00
30554;BME280;17335;50.720;7.452;2023-04-28T06:06:51;98822.06;;;9.78;100.00
30554;BME280;17335;50.720;7.452;2023-04-28T06:09:17;98827.13;;;9.81;100.00
30554;BME280;17335;50.720;7.452;2023-04-28T06:11:44;98829.41;;;9.76;100.00
30554;BME280;17335;50.720;7.452;2023-04-28T06:14:11;98828.28;;;9.79;100.00
30554;BME280;17335;50.720;7.452;2023-04-28T06:16:37;98827.28;;;9.80;100.00
30554;BME280;17335;50.720;7.452;2023-04-28T06:19:04;98817.56;;;9.79;100.00
30554;BME280;17335;50.720;7.452;2023-04-28T06:21:30;98820.34;;;9.87;100.00
30554;BME280;17335;50.720;7.452;2023-04-28T06:23:57;98820.34;;;9.87;100.00
30554;BME280;17335;50.720;7.452;2023-04-28T06:26:24;98825.50;;;9.88;100.00
30554;BME280;17335;50.720;7.452;2023-04-28T06:28:50;98820.72;;;9.92;100.00
30554;BME280;17335;50.720;7.452;2023-04-28T06:31:17;98828.28;;;9.97;100.00
30554;BME280;17335;50.720;7.452;2023-04-28T06:33:44;98825.28;;;10.00;100.00
30554;BME280;17335;50.720;7.452;2023-04-28T06:36:10;98816.72;;;9.96;100.00
30554;BME280;17335;50.720;7.452;2023-04-28T06:38:43;98816.28;;;10.01;100.00
30554;BME280;17335;50.720;7.452;2023-04-28T06:41:10;98816.50;;;10.07;100.00
30554;BME280;17335;50.720;7.452;2023-04-28T06:43:37;98815.84;;;10.13;100.00
30554;BME280;17335;50.720;7.452;2023-04-28T06:46:03;98812.19;;;10.14;100.00
30554;BME280;17335;50.720;7.452;2023-04-28T06:48:30;98812.63;;;10.28;100.00
30554;BME280;17335;50.720;7.452;2023-04-28T06:50:57;98808.50;;;10.34;100.00
30554;BME280;17335;50.720;7.452;2023-04-28T06:53:23;98811.06;;;10.43;100.00
30554;BME280;17335;50.720;7.452;2023-04-28T06:55:50;98801.44;;;10.50;100.00
30554;BME280;17335;50.720;7.452;2023-04-28T06:58:17;98812.69;;;10.54;100.00
30554;BME280;17335;50.720;7.452;2023-04-28T07:00:43;98817.72;;;10.57;100.00
30554;BME280;17335;50.720;7.452;2023-04-28T07:03:10;98814.56;;;10.62;100.00
30554;BME280;17335;50.720;7.452;2023-04-28T07:05:37;98813.88;;;10.60;100.00
30554;BME280;17335;50.720;7.452;2023-04-28T07:08:03;98818.63;;;10.66;100.00
30554;BME280;17335;50.720;7.452;2023-04-28T07:10:30;98815.94;;;10.66;100.00
30554;BME280;17335;50.720;7.452;2023-04-28T07:12:57;98818.13;;;10.70;100.00
30554;BME280;17335;50.720;7.452;2023-04-28T07:15:24;98810.03;;;10.62;100.00
30554;BME280;17335;50.720;7.452;2023-04-28T07:17:51;98811.41;;;10.66;100.00
30554;BME280;17335;50.720;7.452;2023-04-28T07:20:18;98807.19;;;10.64;100.00
30554;BME280;17335;50.720;7.452;2023-04-28T07:22:44;98810.28;;;10.77;100.00
30554;BME280;17335;50.720;7.452;2023-04-28T07:25:11;98811.69;;;10.89;100.00
30554;BME280;17335;50.720;7.452;2023-04-28T07:27:37;98821.84;;;11.04;100.00
30554;BME280;17335;50.720;7.452;2023-04-28T07:30:06;98811.63;;;11.07;100.00
30554;BME280;17335;50.720;7.452;2023-04-28T07:32:51;98812.16;;;11.11;100.00
30554;BME280;17335;50.720;7.452;2023-04-28T07:35:18;98807.63;;;11.12;100.00
30554;BME280;17335;50.720;7.452;2023-04-28T07:37:45;98810.97;;;11.05;100.00
30554;BME280;17335;50.720;7.452;2023-04-28T07:40:12;98810.25;;;11.03;100.00
30554;BME280;17335;50.720;7.452;2023-04-28T07:42:38;98820.00;;;11.04;100.00
30554;BME280;17335;50.720;7.452;2023-04-28T07:45:05;98808.81;;;11.17;100.00
30554;BME280;17335;50.720;7.452;2023-04-28T07:47:32;98815.91;;;11.26;100.00
30554;BME280;17335;50.720;7.452;2023-04-28T07:49:58;98819.31;;;11.37;100.00
30554;BME280;17335;50.720;7.452;2023-04-28T07:52:28;98822.69;;;11.47;100.00
30554;BME280;17335;50.720;7.452;2023-04-28T07:54:55;98818.00;;;11.49;100.00
30554;BME280;17335;50.720;7.452;2023-04-28T07:57:21;98821.88;;;11.55;100.00
30554;BME280;17335;50.720;7.452;2023-04-28T07:59:48;98822.72;;;11.63;100.00
30554;BME280;17335;50.720;7.452;2023-04-28T08:02:16;98818.03;;;11.74;100.00
30554;BME280;17335;50.720;7.452;2023-04-28T08:04:42;98806.16;;;11.93;100.00
30554;BME280;17335;50.720;7.452;2023-04-28T08:07:09;98805.63;;;11.89;100.00
30554;BME280;17335;50.720;7.452;2023-04-28T08:09:35;98807.50;;;11.89;100.00
30554;BME280;17335;50.720;7.452;2023-04-28T08:12:02;98811.81;;;11.65;100.00
30554;BME280;17335;50.720;7.452;2023-04-28T08:14:29;98811.34;;;11.78;100.00
30554;BME280;17335;50.720;7.452;2023-04-28T08:16:56;98817.09;;;11.91;100.00
30554;BME280;17335;50.720;7.452;2023-04-28T08:19:22;98818.78;;;12.00;100.00
30554;BME280;17335;50.720;7.452;2023-04-28T08:21:49;98823.34;;;12.16;100.00
30554;BME280;17335;50.720;7.452;2023-04-28T08:24:15;98821.81;;;12.30;100.00
30554;BME280;17335;50.720;7.452;2023-04-28T08:26:42;98816.44;;;12.30;100.00
30554;BME280;17335;50.720;7.452;2023-04-28T08:29:09;98807.16;;;12.41;100.00
30554;BME280;17335;50.720;7.452;2023-04-28T08:31:35;98820.78;;;12.64;100.00
30554;BME280;17335;50.720;7.452;2023-04-28T08:34:02;98820.56;;;12.82;100.00
30554;BME280;17335;50.720;7.452;2023-04-28T08:36:28;98807.22;;;13.05;100.00
30554;BME280;17335;50.720;7.452;2023-04-28T08:38:58;98808.47;;;13.34;100.00
30554;BME280;17335;50.720;7.452;2023-04-28T08:41:26;98800.25;;;13.59;100.00
30554;BME280;17335;50.720;7.452;2023-04-28T08:43:54;98798.81;;;13.71;100.00
30554;BME280;17335;50.720;7.452;2023-04-28T08:46:22;98802.22;;;13.65;100.00
30554;BME280;17335;50.720;7.452;2023-04-28T08:48:49;98777.25;;;13.71;100.00
30554;BME280;17335;50.720;7.452;2023-04-28T08:51:28;98776.53;;;14.00;100.00
30554;BME280;17335;50.720;7.452;2023-04-28T08:53:58;98790.78;;;14.32;100.00
30554;BME280;17335;50.720;7.452;2023-04-28T08:56:45;98794.72;;;14.44;100.00
30554;BME280;17335;50.720;7.452;2023-04-28T08:59:11;98794.75;;;14.59;100.00
30554;BME280;17335;50.720;7.452;2023-04-28T09:01:38;98794.69;;;14.82;100.00
30554;BME280;17335;50.720;7.452;2023-04-28T09:04:05;98794.97;;;14.88;100.00
30554;BME280;17335;50.720;7.452;2023-04-28T09:06:36;98796.38;;;14.98;100.00
30554;BME280;17335;50.720;7.452;2023-04-28T09:11:57;98806.63;;;14.88;100.00
30554;BME280;17335;50.720;7.452;2023-04-28T09:14:26;98799.63;;;14.94;100.00
30554;BME280;17335;50.720;7.452;2023-04-28T09:16:53;98798.22;;;14.83;100.00
30554;BME280;17335;50.720;7.452;2023-04-28T09:19:20;98791.63;;;14.86;100.00
30554;BME280;17335;50.720;7.452;2023-04-28T09:21:54;98802.06;;;14.74;100.00
30554;BME280;17335;50.720;7.452;2023-04-28T09:24:31;98789.84;;;14.78;100.00
30554;BME280;17335;50.720;7.452;2023-04-28T09:27:08;98785.75;;;14.67;100.00
30554;BME280;17335;50.720;7.452;2023-04-28T09:29:37;98784.78;;;14.75;100.00
30554;BME280;17335;50.720;7.452;2023-04-28T09:32:15;98783.34;;;14.87;100.00
30554;BME280;17335;50.720;7.452;2023-04-28T09:34:46;98786.03;;;15.02;100.00
30554;BME280;17335;50.720;7.452;2023-04-28T09:37:20;98779.97;;;15.00;100.00
30554;BME280;17335;50.720;7.452;2023-04-28T09:39:52;98782.94;;;14.90;100.00
30554;BME280;17335;50.720;7.452;2023-04-28T09:42:35;98780.25;;;14.90;100.00
30554;BME280;17335;50.720;7.452;2023-04-28T09:45:02;98794.06;;;14.80;100.00
30554;BME280;17335;50.720;7.452;2023-04-28T09:47:29;98793.47;;;15.00;100.00
30554;BME280;17335;50.720;7.452;2023-04-28T09:50:05;98799.06;;;14.98;100.00
30554;BME280;17335;50.720;7.452;2023-04-28T09:52:34;98792.28;;;15.03;100.00
30554;BME280;17335;50.720;7.452;2023-04-28T09:55:03;98787.72;;;15.18;100.00
30554;BME280;17335;50.720;7.452;2023-04-28T09:57:33;98788.06;;;15.15;100.00
30554;BME280;17335;50.720;7.452;2023-04-28T10:00:00;98782.47;;;15.16;100.00
30554;BME280;17335;50.720;7.452;2023-04-28T10:02:28;98781.44;;;15.32;100.00
30554;BME280;17335;50.720;7.452;2023-04-28T10:04:58;98780.78;;;15.67;100.00
30554;BME280;17335;50.720;7.452;2023-04-28T10:07:26;98777.91;;;15.90;100.00
30554;BME280;17335;50.720;7.452;2023-04-28T10:09:54;98768.81;;;16.19;100.00
30554;BME280;17335;50.720;7.452;2023-04-28T10:12:23;98767.47;;;16.30;100.00
30554;BME280;17335;50.720;7.452;2023-04-28T10:14:50;98762.09;;;16.37;100.00
30554;BME280;17335;50.720;7.452;2023-04-28T10:17:21;98755.13;;;16.27;100.00
30554;BME280;17335;50.720;7.452;2023-04-28T10:19:49;98758.97;;;16.11;100.00
30554;BME280;17335;50.720;7.452;2023-04-28T10:27:40;98762.84;;;15.81;100.00
30554;BME280;17335;50.720;7.452;2023-04-28T10:35:43;98775.47;;;15.22;100.00
30554;BME280;17335;50.720;7.452;2023-04-28T10:38:14;98781.91;;;15.21;100.00
30554;BME280;17335;50.720;7.452;2023-04-28T10:40:45;98779.19;;;15.21;100.00
30554;BME280;17335;50.720;7.452;2023-04-28T10:43:31;98776.31;;;15.23;100.00
30554;BME280;17335;50.720;7.452;2023-04-28T10:56:09;98786.28;;;15.22;100.00
30554;BME280;17335;50.720;7.452;2023-04-28T10:58:39;98782.34;;;15.25;100.00
30554;BME280;17335;50.720;7.452;2023-04-28T11:06:21;98776.00;;;15.47;100.00
30554;BME280;17335;50.720;7.452;2023-04-28T11:08:55;98778.38;;;15.57;100.00
30554;BME280;17335;50.720;7.452;2023-04-28T11:11:30;98775.03;;;15.55;100.00
30554;BME280;17335;50.720;7.452;2023-04-28T11:16:56;98774.91;;;15.78;100.00
30554;BME280;17335;50.720;7.452;2023-04-28T11:19:28;98775.41;;;15.88;100.00
30554;BME280;17335;50.720;7.452;2023-04-28T11:21:58;98777.66;;;16.06;100.00
30554;BME280;17335;50.720;7.452;2023-04-28T11:24:26;98769.81;;;16.40;100.00
30554;BME280;17335;50.720;7.452;2023-04-28T11:26:54;98765.56;;;16.59;100.00
30554;BME280;17335;50.720;7.452;2023-04-28T11:29:34;98767.75;;;16.70;100.00
30554;BME280;17335;50.720;7.452;2023-04-28T11:32:02;98770.75;;;16.82;100.00
30554;BME280;17335;50.720;7.452;2023-04-28T11:34:29;98756.91;;;17.05;100.00
30554;BME280;17335;50.720;7.452;2023-04-28T11:36:55;98756.91;;;17.05;100.00
30554;BME280;17335;50.720;7.452;2023-04-28T11:39:40;98757.25;;;16.89;100.00
30554;BME280;17335;50.720;7.452;2023-04-28T11:42:10;98756.13;;;16.76;100.00
30554;BME280;17335;50.720;7.452;2023-04-28T11:44:36;98765.66;;;16.72;100.00
30554;BME280;17335;50.720;7.452;2023-04-28T11:47:04;98768.94;;;16.61;100.00
30554;BME280;17335;50.720;7.452;2023-04-28T11:49:44;98766.88;;;16.63;100.00
30554;BME280;17335;50.720;7.452;2023-04-28T11:52:11;98769.69;;;16.48;100.00
30554;BME280;17335;50.720;7.452;2023-04-28T11:54:39;98777.22;;;16.53;100.00
30554;BME280;17335;50.720;7.452;2023-04-28T11:57:19;98772.34;;;16.69;100.00
30554;BME280;17335;50.720;7.452;2023-04-28T11:59:47;98776.47;;;16.94;100.00
30554;BME280;17335;50.720;7.452;2023-04-28T12:02:15;98769.75;;;17.24;100.00
30554;BME280;17335;50.720;7.452;2023-04-28T12:04:49;98766.94;;;17.59;100.00
30554;BME280;17335;50.720;7.452;2023-04-28T12:07:17;98749.75;;;17.39;100.00
30554;BME280;17335;50.720;7.452;2023-04-28T12:09:47;98739.41;;;17.08;100.00
30554;BME280;17335;50.720;7.452;2023-04-28T12:12:30;98748.81;;;17.12;100.00
30554;BME280;17335;50.720;7.452;2023-04-28T12:15:15;98759.84;;;17.65;100.00
30554;BME280;17335;50.720;7.452;2023-04-28T12:17:45;98748.19;;;17.78;100.00
30554;BME280;17335;50.720;7.452;2023-04-28T12:20:37;98744.72;;;18.04;100.00
30554;BME280;17335;50.720;7.452;2023-04-28T12:23:04;98725.69;;;18.11;100.00
30554;BME280;17335;50.720;7.452;2023-04-28T12:25:32;98720.47;;;18.03;100.00
30554;BME280;17335;50.720;7.452;2023-04-28T12:28:04;98721.94;;;17.98;100.00
30554;BME280;17335;50.720;7.452;2023-04-28T12:30:36;98714.78;;;18.51;100.00
30554;BME280;17335;50.720;7.452;2023-04-28T12:33:25;98709.72;;;18.81;100.00
30554;BME280;17335;50.720;7.452;2023-04-28T12:35:52;98708.38;;;19.10;100.00
30554;BME280;17335;50.720;7.452;2023-04-28T12:38:23;98695.81;;;19.09;100.00
30554;BME280;17335;50.720;7.452;2023-04-28T12:40:49;98701.28;;;19.03;100.00
30554;BME280;17335;50.720;7.452;2023-04-28T12:43:16;98701.88;;;19.11;100.00
30554;BME280;17335;50.720;7.452;2023-04-28T12:45:43;98697.31;;;19.05;100.00
30554;BME280;17335;50.720;7.452;2023-04-28T12:48:09;98704.78;;;19.17;100.00
30554;BME280;17335;50.720;7.452;2023-04-28T12:50:36;98703.00;;;19.42;100.00
30554;BME280;17335;50.720;7.452;2023-04-28T12:53:02;98697.66;;;19.61;100.00
30554;BME280;17335;50.720;7.452;2023-04-28T12:55:30;98694.78;;;19.88;100.00
30554;BME280;17335;50.720;7.452;2023-04-28T12:57:56;98681.03;;;20.26;100.00
30554;BME280;17335;50.720;7.452;2023-04-28T13:00:23;98686.31;;;20.65;100.00
30554;BME280;17335;50.720;7.452;2023-04-28T13:02:50;98682.16;;;20.18;100.00
30554;BME280;17335;50.720;7.452;2023-04-28T13:05:17;98685.44;;;20.02;100.00
30554;BME280;17335;50.720;7.452;2023-04-28T13:07:45;98677.88;;;19.79;100.00
30554;BME280;17335;50.720;7.452;2023-04-28T13:10:12;98680.22;;;19.68;100.00
30554;BME280;17335;50.720;7.452;2023-04-28T13:12:39;98677.16;;;19.58;100.00
30554;BME280;17335;50.720;7.452;2023-04-28T13:15:07;98677.50;;;19.68;100.00
30554;BME280;17335;50.720;7.452;2023-04-28T13:17:34;98673.31;;;20.23;100.00
30554;BME280;17335;50.720;7.452;2023-04-28T13:20:00;98652.25;;;20.74;100.00
30554;BME280;17335;50.720;7.452;2023-04-28T13:22:29;98638.31;;;21.12;100.00
30554;BME280;17335;50.720;7.452;2023-04-28T13:24:55;98630.56;;;20.97;100.00
30554;BME280;17335;50.720;7.452;2023-04-28T13:27:22;98634.19;;;21.10;100.00
30554;BME280;17335;50.720;7.452;2023-04-28T13:29:49;98642.34;;;21.28;100.00